Winchester, MA

12:33 AM EDT on May 29, 2015 (GMT -0400)
Logan International | | Change Station
CLOSE
Current Station
Airport
Location: Boston,
Elevation: 20 ft
Nearby Weather Stations

Elev 20 ft 42.36 °N, 71.01 °W | Updated 39 minutes ago

Partly Cloudy
Partly Cloudy
70 °F
Feels Like 70 °F
N
12
Wind Variable Wind from WNW

Today
High -- | Low -- °F
--% Chance of Precip.
Yesterday
High -- | Low -- °F
Precip. -- in
5:11 AM 8:12 PM
Waxing Gibbous, 81% visible
Pressure 30.21 in
Visibility 10.0 miles
Clouds Scattered Clouds 7000 ft
Dew Point 55 °F
Humidity 59%
Rainfall 0.00 in
Snow Depth Not available.
UV 0 out of 12
Pollen 10.20 out of 12
Air Quality Not available.
Flu Activity Local Activity
METAR KBOS 290354Z 30010KT 10SM SCT070 21/13 A3021 RMK AO2 SLP230 T02110128

More Conditions Fewer Conditions

Pressure 30.21 in
Visibility 10.0 miles
Clouds Scattered Clouds 7000 ft
Dew Point 55 °F
Humidity 59%
Rainfall 0.00 in
Snow Depth Not available.
UV 0 out of 12
Pollen 10.20 out of 12
Air Quality Not available.
Flu Activity Local Activity
METAR KBOS 290354Z 30010KT 10SM SCT070 21/13 A3021 RMK AO2 SLP230 T02110128

More Conditions Fewer Conditions

10-Day Weather Forecast

Almanac

Astronomy

May. 29, 2015 Rise Set
Actual Time
Civil Twilight
Nautical Twilight
Astronomical Twilight
Moon
Length of Visible Light
Length of Day
Tomorrow will be .
, % of the Moon is Illuminated

Today's Extremes

State Highs State Lows

Community

WunderPhotos

Upload Photos

1,825,191 photos uploaded!

WunderBlogs® & News

Nearby

Air Quality

  Air Quality AQ Index Pollutant
Not available.

Snow Depth

Station Depth Elevation

Earthquake Activity

City Distance Mag. Time & Date
Minimum magnitude displayed is 2.5.

Coastal Water Temperatures

Place Temperature

Stations

Nearby Weather Stations

Station Location Temp. Windchill Dew Point Humidity Wind Precip. Elev Updated Type